Terminal Aerodrome Forecast
Issued by NWS Wakefield, VA

Home | Current Version | Previous Version | Text Only | Print | Product List | Glossary On
Versions: 1 2 3 4 5 6 7 8 9 10 11 12
000
FTUS41 KAKQ 131720
TAFSBY
TAF
KSBY 131720Z 1318/1418 28015G28KT P6SM SKC
     FM132000 28012G20KT P6SM SCT250
     FM132200 25009KT P6SM BKN120
     FM140300 21009KT P6SM BKN070
     FM141000 27010KT P6SM BKN250=

USA.gov is the U.S. government's official web portal to all federal, state and local government web resources and services.